createdAt,value
2022-11-02T00:01:15.569Z,48.47
2022-11-02T00:03:42.794Z,47.07
2022-11-02T00:06:09.742Z,51.53
2022-11-02T00:08:36.838Z,44.40
2022-11-02T00:11:03.779Z,46.60
2022-11-02T00:13:30.928Z,47.20
2022-11-02T00:16:00.824Z,47.50
2022-11-02T00:18:28.093Z,40.83
2022-11-02T00:20:56.708Z,43.70
2022-11-02T00:23:24.050Z,42.10
2022-11-02T00:25:53.357Z,49.80
2022-11-02T00:28:20.503Z,46.40
2022-11-02T00:30:47.380Z,45.67
2022-11-02T00:33:14.543Z,48.13
2022-11-02T00:35:42.144Z,46.90
2022-11-02T00:38:09.243Z,45.93
2022-11-02T00:40:36.127Z,45.83
2022-11-02T00:43:03.254Z,45.20
2022-11-02T00:45:30.149Z,46.70
2022-11-02T00:47:57.238Z,48.73
2022-11-02T00:50:24.165Z,45.33
2022-11-02T00:52:51.259Z,52.97
2022-11-02T00:55:18.378Z,47.27
2022-11-02T00:57:45.707Z,52.17
2022-11-02T01:00:14.727Z,48.57
2022-11-02T01:02:42.219Z,48.40
2022-11-02T01:05:10.446Z,48.33
2022-11-02T01:07:37.848Z,50.57
2022-11-02T01:10:09.382Z,45.83
2022-11-02T01:12:40.072Z,51.13
2022-11-02T01:15:10.337Z,49.23
2022-11-02T01:17:37.636Z,49.97
2022-11-02T01:20:05.783Z,47.07
2022-11-02T01:22:32.864Z,47.30
2022-11-02T01:24:59.801Z,51.30
2022-11-02T01:27:26.850Z,52.13
2022-11-02T01:29:53.724Z,48.20
2022-11-02T01:32:20.827Z,48.70
2022-11-02T01:34:47.687Z,51.73
2022-11-02T01:37:14.803Z,44.37
2022-11-02T01:39:41.709Z,51.90
2022-11-02T01:42:20.529Z,49.87
2022-11-02T01:44:47.806Z,50.97
2022-11-02T01:47:28.352Z,52.90
2022-11-02T01:50:12.209Z,55.03
2022-11-02T01:52:39.910Z,47.43
2022-11-02T01:55:19.921Z,51.97
2022-11-02T01:58:01.648Z,52.67
2022-11-02T02:00:28.822Z,51.93
2022-11-02T02:03:09.151Z,56.33
2022-11-02T02:05:41.361Z,55.73
2022-11-02T02:08:09.937Z,55.70
2022-11-02T02:10:37.125Z,49.07
2022-11-02T02:13:06.252Z,61.23
2022-11-02T02:15:42.550Z,59.20
2022-11-02T02:18:45.688Z,56.67
2022-11-02T02:21:35.606Z,57.17
2022-11-02T02:24:05.646Z,61.27
2022-11-02T02:26:56.806Z,61.07
2022-11-02T02:29:51.865Z,64.33
2022-11-02T02:32:40.159Z,67.00
2022-11-02T02:35:33.443Z,70.03
2022-11-02T02:38:08.674Z,65.03
2022-11-02T02:40:47.767Z,72.73
2022-11-02T02:43:26.151Z,70.23
2022-11-02T02:45:58.634Z,73.67
2022-11-02T02:48:26.560Z,73.37
2022-11-02T02:50:59.755Z,68.80
2022-11-02T02:53:38.532Z,73.03
2022-11-02T02:56:07.693Z,82.43
2022-11-02T02:58:45.396Z,84.77
2022-11-02T03:01:14.629Z,78.37
2022-11-02T03:03:43.432Z,86.40
2022-11-02T03:06:19.388Z,83.83
2022-11-02T03:08:55.294Z,93.43
2022-11-02T03:11:23.393Z,86.80
2022-11-02T03:13:56.341Z,86.33
2022-11-02T03:17:00.594Z,88.90
2022-11-02T03:20:16.703Z,96.43
2022-11-02T03:22:58.144Z,104.80
2022-11-02T03:25:30.597Z,106.47
2022-11-02T03:28:12.103Z,106.40
2022-11-02T03:30:44.643Z,100.27
2022-11-02T03:33:22.272Z,110.33
2022-11-02T03:36:04.007Z,105.77
2022-11-02T03:38:47.563Z,113.53
2022-11-02T03:41:15.985Z,106.70
2022-11-02T03:43:45.730Z,106.83
2022-11-02T03:46:16.228Z,107.93
2022-11-02T03:48:48.026Z,109.93
2022-11-02T03:51:19.289Z,113.70
2022-11-02T03:53:54.491Z,119.63
2022-11-02T03:56:42.440Z,113.30
2022-11-02T03:59:09.560Z,110.70
2022-11-02T04:01:46.310Z,115.97
2022-11-02T04:04:13.919Z,106.83
2022-11-02T04:06:42.705Z,112.03
2022-11-02T04:09:11.750Z,121.33
2022-11-02T04:11:57.486Z,119.53
2022-11-02T04:14:39.999Z,107.67
2022-11-02T04:17:28.117Z,121.00
2022-11-02T04:19:56.223Z,118.80
2022-11-02T04:22:42.047Z,128.23
2022-11-02T04:25:20.991Z,131.23
2022-11-02T04:27:50.296Z,124.43
2022-11-02T04:30:19.786Z,118.70
2022-11-02T04:33:07.607Z,143.63
2022-11-02T04:35:36.164Z,132.03
2022-11-02T04:38:22.524Z,130.03
2022-11-02T04:41:09.560Z,150.00
2022-11-02T04:43:36.472Z,143.73
2022-11-02T04:46:03.773Z,136.50
2022-11-02T04:48:30.607Z,135.43
2022-11-02T04:50:58.617Z,137.67
2022-11-02T04:53:25.494Z,132.27
2022-11-02T04:55:52.664Z,141.80
2022-11-02T04:58:19.609Z,141.47
2022-11-02T05:00:46.699Z,140.70
2022-11-02T05:03:13.597Z,150.37
2022-11-02T05:05:40.640Z,165.73
2022-11-02T05:08:07.614Z,146.27
2022-11-02T05:10:34.820Z,151.93
2022-11-02T05:13:02.015Z,152.67
2022-11-02T05:15:29.238Z,147.73
2022-11-02T05:17:56.166Z,153.70
2022-11-02T05:20:23.352Z,146.63
2022-11-02T05:22:50.433Z,139.27
2022-11-02T05:25:17.490Z,127.00
2022-11-02T05:27:44.501Z,134.73
2022-11-02T05:30:12.143Z,145.40
2022-11-02T05:32:39.209Z,137.67
2022-11-02T05:35:38.335Z,137.37
2022-11-02T05:38:05.549Z,138.27
2022-11-02T05:40:33.812Z,145.90
2022-11-02T05:43:01.822Z,135.40
2022-11-02T05:45:29.053Z,139.90
2022-11-02T05:48:05.431Z,133.23
2022-11-02T06:16:53.318Z,126.20
2022-11-02T06:19:47.709Z,146.00
2022-11-02T07:11:25.548Z,62.67
2022-11-02T07:13:52.697Z,69.13
2022-11-02T07:16:55.512Z,61.00
2022-11-02T07:19:41.638Z,53.47
2022-11-02T07:22:09.964Z,57.07
2022-11-02T07:24:37.152Z,56.97
2022-11-02T07:27:04.092Z,58.63
2022-11-02T07:29:31.266Z,43.37
2022-11-02T07:31:58.234Z,45.90
2022-11-02T07:34:25.401Z,47.30
2022-11-02T07:37:01.951Z,38.70
2022-11-02T07:39:29.292Z,40.00
2022-11-02T07:41:56.286Z,44.23
2022-11-02T07:44:23.937Z,37.17
2022-11-02T07:46:50.795Z,41.50
2022-11-02T07:49:21.486Z,34.43
2022-11-02T07:51:48.940Z,38.03
2022-11-02T07:54:26.548Z,32.13
2022-11-02T07:56:53.830Z,37.93
2022-11-02T08:54:16.620Z,37.20
2022-11-02T08:56:43.944Z,37.20
2022-11-02T08:59:21.664Z,36.43
2022-11-02T09:01:59.806Z,35.83
2022-11-02T09:04:26.897Z,42.57
2022-11-02T09:06:54.132Z,38.73
2022-11-02T09:09:21.182Z,32.67
2022-11-02T09:11:50.586Z,37.53
2022-11-02T09:14:17.592Z,39.47
2022-11-02T09:16:54.217Z,39.70
2022-11-02T09:19:30.904Z,36.63
2022-11-02T09:22:05.878Z,39.00
2022-11-02T09:24:32.899Z,32.23
2022-11-02T09:27:00.540Z,36.40
2022-11-02T09:29:27.950Z,35.80
2022-11-02T09:31:55.200Z,34.97
2022-11-02T09:34:23.861Z,36.93
2022-11-02T09:40:58.888Z,37.87
2022-11-02T09:43:58.682Z,43.03
2022-11-02T09:46:33.630Z,34.80
2022-11-02T09:49:22.553Z,38.90
2022-11-02T09:51:58.429Z,33.13
2022-11-02T10:56:15.917Z,29.50
2022-11-02T10:59:04.351Z,32.33
2022-11-02T11:01:32.943Z,36.60
2022-11-02T11:04:04.371Z,36.20
2022-11-02T11:06:36.962Z,29.13
2022-11-02T11:09:15.186Z,33.90
2022-11-02T11:11:52.311Z,31.50
2022-11-02T11:20:37.609Z,34.93
2022-11-02T11:23:09.542Z,32.67
2022-11-02T11:25:42.658Z,29.53
2022-11-02T11:29:10.640Z,26.90
2022-11-02T11:31:39.156Z,26.73
2022-11-02T11:34:20.391Z,25.80
2022-11-02T11:36:47.729Z,25.33
2022-11-02T11:39:27.929Z,29.83
2022-11-02T11:41:55.920Z,23.60
2022-11-02T11:44:23.273Z,28.70
2022-11-02T11:46:58.145Z,27.10
2022-11-02T11:50:22.212Z,20.97
2022-11-02T11:53:13.054Z,23.03
2022-11-02T11:55:49.086Z,23.60
2022-11-02T11:58:30.033Z,22.63
2022-11-02T12:01:09.198Z,24.00
2022-11-02T12:04:12.181Z,23.97
2022-11-02T12:07:43.308Z,23.47
2022-11-02T14:27:19.270Z,27.00
2022-11-02T14:29:46.661Z,24.00
2022-11-02T14:32:30.982Z,25.00
2022-11-02T14:35:17.011Z,27.90
2022-11-02T14:38:05.498Z,27.57
2022-11-02T14:40:57.329Z,27.20
2022-11-02T14:43:27.329Z,28.43
2022-11-02T14:46:26.583Z,30.03
2022-11-02T14:48:57.328Z,29.93
2022-11-02T14:51:27.867Z,35.03
2022-11-02T14:53:59.578Z,28.97
2022-11-02T14:56:46.573Z,28.17
2022-11-02T14:59:38.489Z,29.80
2022-11-02T15:02:23.748Z,33.20
2022-11-02T15:05:00.562Z,31.30
2022-11-02T15:08:02.268Z,34.30
2022-11-02T15:10:32.255Z,28.57
2022-11-02T15:13:18.233Z,33.93
2022-11-02T15:16:11.747Z,31.80
2022-11-02T15:18:40.572Z,29.40
2022-11-02T15:21:11.112Z,35.17
2022-11-02T15:23:50.933Z,31.57
2022-11-02T15:26:27.652Z,30.47
2022-11-02T15:28:58.754Z,34.00
2022-11-02T15:31:26.932Z,34.40
2022-11-02T15:33:57.738Z,34.60
2022-11-02T15:36:36.922Z,34.77
2022-11-02T15:39:08.187Z,40.33
2022-11-02T15:41:45.742Z,39.90
2022-11-02T15:44:41.093Z,39.10
2022-11-02T15:47:35.494Z,37.83
2022-11-02T15:50:12.558Z,31.67
2022-11-02T15:53:22.333Z,38.17
2022-11-02T15:56:00.445Z,31.43
2022-11-02T15:59:06.412Z,34.57
2022-11-02T16:02:32.544Z,35.23
2022-11-02T16:05:06.026Z,37.63
2022-11-02T16:07:56.958Z,38.87
2022-11-02T16:10:31.011Z,43.97
2022-11-02T16:13:11.284Z,43.83
2022-11-02T16:15:42.294Z,38.27
2022-11-02T16:18:59.244Z,39.37
2022-11-02T16:21:30.530Z,39.90
2022-11-02T16:23:59.362Z,40.30
2022-11-02T16:26:29.746Z,42.93
2022-11-02T16:28:59.255Z,43.67
2022-11-02T16:31:31.269Z,53.20
2022-11-02T16:34:03.362Z,57.13
2022-11-02T16:37:20.244Z,44.70
2022-11-02T16:39:53.835Z,44.73
2022-11-02T16:42:24.510Z,64.57
2022-11-02T16:45:01.703Z,50.93
2022-11-02T16:47:35.868Z,60.40
2022-11-02T16:50:03.852Z,48.10
2022-11-02T16:52:34.550Z,45.47
2022-11-02T16:55:49.356Z,43.83
2022-11-02T16:58:45.360Z,46.33
2022-11-02T17:01:21.338Z,50.07
2022-11-02T17:03:49.842Z,52.90
2022-11-02T17:06:18.544Z,51.60
2022-11-02T17:08:51.960Z,51.03
2022-11-02T17:11:19.993Z,44.13
2022-11-02T17:13:50.596Z,42.57
2022-11-02T17:16:21.054Z,40.33
2022-11-02T17:18:48.260Z,39.67
2022-11-02T17:21:29.122Z,41.33
2022-11-02T17:23:58.519Z,41.10
2022-11-02T17:26:31.151Z,42.80
2022-11-02T17:29:03.841Z,44.17
2022-11-02T17:31:45.286Z,37.83
2022-11-02T17:34:20.932Z,36.73
2022-11-02T17:36:49.280Z,40.17
2022-11-02T17:39:18.695Z,34.83
2022-11-02T17:42:16.383Z,38.97
2022-11-02T17:44:45.432Z,34.00
2022-11-02T17:47:13.944Z,31.73
2022-11-02T17:49:42.496Z,38.47
2022-11-02T17:52:16.450Z,33.47
2022-11-02T17:54:47.283Z,32.17
2022-11-02T17:57:15.602Z,29.17
2022-11-02T17:59:42.476Z,36.37
2022-11-02T18:02:14.376Z,28.33
2022-11-02T18:04:41.409Z,25.33
2022-11-02T18:07:09.286Z,28.07
2022-11-02T18:09:40.386Z,28.77
2022-11-02T18:12:15.942Z,23.87
2022-11-02T18:14:42.950Z,19.17
2022-11-02T18:17:10.639Z,20.37
2022-11-02T18:19:38.106Z,24.33
2022-11-02T18:22:05.264Z,19.20
2022-11-02T18:24:32.156Z,22.80
2022-11-02T18:26:59.367Z,19.73
2022-11-02T18:29:26.209Z,16.87
2022-11-02T18:31:53.364Z,16.97
2022-11-02T18:34:20.293Z,18.57
2022-11-02T18:36:47.549Z,17.13
2022-11-02T18:39:14.438Z,17.90
2022-11-02T18:41:42.561Z,18.07
2022-11-02T18:44:14.990Z,20.87
2022-11-02T18:46:43.166Z,23.70
2022-11-02T18:49:10.155Z,19.67
2022-11-02T18:51:37.456Z,15.63
2022-11-02T18:54:05.992Z,13.90
2022-11-02T18:56:33.563Z,17.07
2022-11-02T18:59:00.679Z,19.40
2022-11-02T19:01:28.178Z,12.90
2022-11-02T19:03:57.807Z,20.07
2022-11-02T19:06:44.754Z,16.57
2022-11-02T19:09:19.752Z,13.97
2022-11-02T19:11:54.665Z,12.60
2022-11-02T19:14:22.734Z,17.80
2022-11-02T19:16:50.038Z,13.40
2022-11-02T19:19:17.057Z,19.27
2022-11-02T19:21:51.702Z,12.90
2022-11-02T19:24:33.653Z,16.10
2022-11-02T19:27:00.875Z,14.10
2022-11-02T19:29:27.834Z,15.03
2022-11-02T19:31:54.983Z,13.50
2022-11-02T19:34:23.079Z,16.07
2022-11-02T19:36:50.203Z,14.87
2022-11-02T19:39:17.092Z,14.10
2022-11-02T19:42:06.456Z,17.87
2022-11-02T19:44:38.222Z,17.93
2022-11-02T19:47:08.272Z,18.93
2022-11-02T19:49:35.118Z,19.60
2022-11-02T19:52:02.253Z,18.23
2022-11-02T19:54:29.128Z,18.60
2022-11-02T19:56:56.318Z,17.90
2022-11-02T19:59:32.347Z,12.30
2022-11-02T20:02:05.610Z,18.63
2022-11-02T20:04:38.033Z,15.63
2022-11-02T20:07:08.248Z,20.90
2022-11-02T20:09:35.276Z,22.33
2022-11-02T20:12:04.208Z,19.17
2022-11-02T20:14:31.241Z,16.77
2022-11-02T20:20:08.912Z,18.17
2022-11-02T20:22:36.203Z,17.77
2022-11-02T20:25:03.087Z,24.30
2022-11-02T20:27:30.572Z,24.00
2022-11-02T20:29:57.469Z,18.77
2022-11-02T20:32:24.622Z,17.43
2022-11-02T20:34:56.025Z,19.37
2022-11-02T20:37:29.523Z,17.47
2022-11-02T20:39:56.555Z,20.70
2022-11-02T20:42:25.812Z,16.07
2022-11-02T20:44:52.743Z,19.87
2022-11-02T20:47:19.914Z,15.17
2022-11-02T20:49:51.199Z,18.67
2022-11-02T20:52:19.036Z,19.40
2022-11-02T20:54:48.180Z,15.57
2022-11-02T20:57:25.337Z,16.17
2022-11-02T20:59:52.292Z,19.53
2022-11-02T21:02:22.220Z,20.50
2022-11-02T21:04:49.216Z,21.20
2022-11-02T21:07:16.461Z,21.80
2022-11-02T21:09:43.657Z,17.80
2022-11-02T21:15:14.907Z,15.97
2022-11-02T21:17:42.148Z,16.07
2022-11-02T21:22:58.855Z,20.30
2022-11-02T21:25:25.893Z,15.97
2022-11-02T21:27:53.068Z,22.07
2022-11-02T21:30:20.411Z,18.40
2022-11-02T21:32:51.708Z,19.73
2022-11-02T21:35:19.456Z,19.43
2022-11-02T21:37:47.002Z,17.00
2022-11-02T21:40:14.136Z,22.67
2022-11-02T21:42:41.329Z,22.23
2022-11-02T21:45:08.844Z,16.83
2022-11-02T21:47:36.004Z,22.97
2022-11-02T21:50:06.564Z,22.80
2022-11-02T21:52:39.792Z,21.07
2022-11-02T21:55:11.446Z,17.97
2022-11-02T21:57:38.631Z,18.63
2022-11-02T22:00:06.067Z,26.87
2022-11-02T22:02:33.340Z,18.57
2022-11-02T22:05:00.301Z,19.70
2022-11-02T22:07:27.543Z,18.73
2022-11-02T22:09:54.530Z,17.80
2022-11-02T22:12:40.434Z,26.70
2022-11-02T22:15:08.257Z,24.53
2022-11-02T22:17:49.252Z,24.97
2022-11-02T22:20:16.843Z,20.83
2022-11-02T22:22:43.983Z,26.07
2022-11-02T22:25:10.901Z,19.03
2022-11-02T22:27:38.131Z,19.93
2022-11-02T22:30:05.739Z,21.17
2022-11-02T22:32:32.852Z,21.17
2022-11-02T22:34:59.703Z,26.50
2022-11-02T22:37:45.828Z,18.23
2022-11-02T22:40:12.706Z,19.60
2022-11-02T22:42:42.425Z,22.87
2022-11-02T22:45:10.154Z,25.70
2022-11-02T22:47:37.476Z,20.33
2022-11-02T22:50:04.888Z,19.67
2022-11-02T22:52:32.018Z,18.50
2022-11-02T22:54:58.912Z,18.93
2022-11-02T22:57:26.060Z,20.30
2022-11-02T22:59:52.953Z,25.27
2022-11-02T23:02:20.305Z,18.57
2022-11-02T23:04:52.690Z,21.47
2022-11-02T23:07:19.840Z,18.53
2022-11-02T23:09:46.709Z,16.90
2022-11-02T23:12:14.299Z,15.97
2022-11-02T23:14:41.356Z,16.67
2022-11-02T23:17:08.259Z,20.13
2022-11-02T23:19:38.219Z,15.23
2022-11-02T23:22:30.179Z,18.53
2022-11-02T23:25:11.452Z,17.37
2022-11-02T23:27:58.149Z,14.90
2022-11-02T23:30:46.300Z,13.00
2022-11-02T23:33:13.228Z,12.87
2022-11-02T23:35:58.847Z,13.90
2022-11-02T23:38:45.823Z,15.07
2022-11-02T23:41:13.019Z,18.00
2022-11-02T23:43:39.953Z,16.07
2022-11-02T23:46:07.122Z,11.47
2022-11-02T23:48:34.116Z,14.83
2022-11-02T23:51:20.207Z,13.13
2022-11-02T23:54:05.566Z,11.17
2022-11-02T23:56:43.484Z,12.43
2022-11-02T23:59:13.324Z,10.90
